createdAt,value
2018-12-06T00:00:43.844Z,96.60
2018-12-06T00:03:11.551Z,96.50
2018-12-06T00:05:39.126Z,96.60
2018-12-06T00:08:14.118Z,96.60
2018-12-06T00:10:42.849Z,96.70
2018-12-06T00:13:10.501Z,96.70
2018-12-06T00:15:38.334Z,96.70
2018-12-06T00:18:05.956Z,96.70
2018-12-06T00:20:33.595Z,96.70
2018-12-06T00:23:01.333Z,96.70
2018-12-06T00:26:03.718Z,96.80
2018-12-06T00:28:31.350Z,96.90
2018-12-06T00:31:03.761Z,97.00
2018-12-06T00:33:31.327Z,97.00
2018-12-06T00:35:58.869Z,97.00
2018-12-06T00:38:26.422Z,97.00
2018-12-06T00:40:53.935Z,97.00
2018-12-06T00:43:23.114Z,97.00
2018-12-06T00:45:50.729Z,97.10
2018-12-06T00:48:18.333Z,97.10
2018-12-06T00:50:45.870Z,97.10
2018-12-06T00:53:13.533Z,97.10
2018-12-06T00:55:41.210Z,97.10
2018-12-06T00:58:08.798Z,97.10
2018-12-06T01:00:36.283Z,97.10
2018-12-06T01:03:05.180Z,97.20
2018-12-06T01:05:32.713Z,97.10
2018-12-06T01:08:00.354Z,97.20
2018-12-06T01:10:28.209Z,97.20
2018-12-06T01:12:58.089Z,97.20
2018-12-06T01:15:25.793Z,97.30
2018-12-06T01:17:56.419Z,97.20
2018-12-06T01:20:25.254Z,97.20
2018-12-06T01:22:52.757Z,97.30
2018-12-06T01:25:20.438Z,97.30
2018-12-06T01:27:48.158Z,97.30
2018-12-06T01:30:15.671Z,97.30
2018-12-06T01:32:43.220Z,97.30
2018-12-06T01:35:10.869Z,97.30
2018-12-06T01:37:38.494Z,97.30
2018-12-06T01:40:06.151Z,97.40
2018-12-06T01:42:33.679Z,97.40
2018-12-06T01:45:01.229Z,97.50
2018-12-06T01:47:28.802Z,97.50
2018-12-06T01:49:56.442Z,97.50
2018-12-06T01:52:24.158Z,97.50
2018-12-06T01:54:51.773Z,97.50
2018-12-06T01:57:21.121Z,97.50
2018-12-06T01:59:48.722Z,97.50
2018-12-06T02:02:16.397Z,97.50
2018-12-06T02:04:44.032Z,97.50
2018-12-06T02:07:11.774Z,97.60
2018-12-06T02:09:39.292Z,97.60
2018-12-06T02:12:06.973Z,97.60
2018-12-06T02:14:34.783Z,97.60
2018-12-06T02:17:02.371Z,97.60
2018-12-06T02:19:29.958Z,97.60
2018-12-06T02:21:57.572Z,97.60
2018-12-06T02:24:25.134Z,97.60
2018-12-06T02:26:52.794Z,97.70
2018-12-06T02:29:20.878Z,97.70
2018-12-06T02:31:49.046Z,97.70
2018-12-06T02:34:17.858Z,97.70
2018-12-06T02:36:45.519Z,97.70
2018-12-06T02:39:13.146Z,97.80
2018-12-06T02:41:40.725Z,97.80
2018-12-06T02:44:08.754Z,97.80
2018-12-06T02:46:36.391Z,97.80
2018-12-06T02:49:04.002Z,97.80
2018-12-06T02:51:31.737Z,97.80
2018-12-06T02:53:59.429Z,97.80
2018-12-06T02:56:27.056Z,97.80
2018-12-06T02:58:54.777Z,97.90
2018-12-06T03:04:46.586Z,97.90
2018-12-06T03:07:14.134Z,98.00
2018-12-06T03:09:41.679Z,98.00
2018-12-06T03:12:09.293Z,98.00
2018-12-06T03:14:36.913Z,98.00
2018-12-06T03:17:07.072Z,98.00
2018-12-06T03:19:34.803Z,98.00
2018-12-06T03:22:02.413Z,98.00
2018-12-06T03:24:30.056Z,98.00
2018-12-06T03:26:57.585Z,98.00
2018-12-06T03:29:25.378Z,98.00
2018-12-06T03:31:53.011Z,98.10
2018-12-06T03:34:20.777Z,98.10
2018-12-06T03:36:48.318Z,98.10
2018-12-06T03:39:16.967Z,98.10
2018-12-06T03:41:44.613Z,98.10
2018-12-06T03:44:12.121Z,98.10
2018-12-06T03:46:39.751Z,98.10
2018-12-06T03:49:07.377Z,98.10
2018-12-06T03:51:34.902Z,98.10
2018-12-06T03:54:02.501Z,98.20
2018-12-06T03:56:30.007Z,98.20
2018-12-06T03:58:57.518Z,98.20
2018-12-06T04:01:25.637Z,98.20
2018-12-06T04:03:53.432Z,98.20
2018-12-06T04:06:24.283Z,98.20
2018-12-06T04:08:51.871Z,98.20
2018-12-06T04:11:19.410Z,98.50
2018-12-06T04:13:46.925Z,98.20
2018-12-06T04:16:14.490Z,98.30
2018-12-06T04:18:42.030Z,98.30
2018-12-06T04:21:09.601Z,98.30
2018-12-06T04:23:37.110Z,98.30
2018-12-06T04:26:04.762Z,98.30
2018-12-06T04:28:32.271Z,98.30
2018-12-06T04:30:59.893Z,98.30
2018-12-06T04:33:29.426Z,98.30
2018-12-06T04:35:57.045Z,98.30
2018-12-06T04:38:25.949Z,98.30
2018-12-06T04:40:53.502Z,98.40
2018-12-06T04:43:21.134Z,98.30
2018-12-06T04:45:49.733Z,98.40
2018-12-06T04:48:21.907Z,98.40
2018-12-06T04:50:46.839Z,98.40
2018-12-06T04:53:14.645Z,98.40
2018-12-06T04:55:42.169Z,98.40
2018-12-06T04:58:09.668Z,98.40
2018-12-06T05:00:37.329Z,98.50
2018-12-06T05:03:05.023Z,98.40
2018-12-06T05:05:32.964Z,98.50
2018-12-06T05:08:00.628Z,98.50
2018-12-06T05:10:28.367Z,98.50
2018-12-06T05:12:55.947Z,98.70
2018-12-06T05:15:25.146Z,98.50
2018-12-06T05:17:52.695Z,98.50
2018-12-06T05:20:20.281Z,98.50
2018-12-06T05:22:47.916Z,98.50
2018-12-06T05:25:15.559Z,98.60
2018-12-06T05:27:48.041Z,98.60
2018-12-06T05:30:15.658Z,98.60
2018-12-06T05:32:43.282Z,98.60
2018-12-06T05:35:10.952Z,98.60
2018-12-06T05:37:38.573Z,98.60
2018-12-06T05:40:06.325Z,98.70
2018-12-06T05:42:33.887Z,98.70
2018-12-06T05:45:01.432Z,98.70
2018-12-06T05:47:28.984Z,98.70
2018-12-06T05:49:56.481Z,98.70
2018-12-06T05:52:24.104Z,98.70
2018-12-06T05:54:52.391Z,98.70
2018-12-06T05:57:20.092Z,98.90
2018-12-06T05:59:48.336Z,98.80
2018-12-06T06:02:15.907Z,98.80
2018-12-06T06:04:43.510Z,98.80
2018-12-06T06:07:11.337Z,98.80
2018-12-06T06:09:39.223Z,98.80
2018-12-06T06:12:06.989Z,98.80
2018-12-06T06:14:34.531Z,98.90
2018-12-06T06:17:02.101Z,98.80
2018-12-06T06:19:29.854Z,98.80
2018-12-06T06:21:57.508Z,98.90
2018-12-06T06:24:25.213Z,98.90
2018-12-06T06:26:52.770Z,99.00
2018-12-06T06:29:20.341Z,98.90
2018-12-06T06:31:47.894Z,99.00
2018-12-06T06:34:15.382Z,99.30
2018-12-06T06:36:43.329Z,99.00
2018-12-06T06:39:11.032Z,99.10
2018-12-06T06:41:39.045Z,99.10
2018-12-06T06:44:06.657Z,99.10
2018-12-06T06:46:34.194Z,99.10
2018-12-06T06:49:03.124Z,99.10
2018-12-06T06:51:30.655Z,99.10
2018-12-06T06:53:58.217Z,99.10
2018-12-06T06:56:25.814Z,99.10
2018-12-06T06:58:53.489Z,99.10
2018-12-06T07:01:21.169Z,99.20
2018-12-06T07:03:48.728Z,99.20
2018-12-06T07:06:16.847Z,99.30
2018-12-06T07:08:44.487Z,99.30
2018-12-06T07:11:12.044Z,99.30
2018-12-06T07:13:39.563Z,99.30
2018-12-06T07:16:07.249Z,99.40
2018-12-06T07:18:34.829Z,99.40
2018-12-06T07:21:02.385Z,99.40
2018-12-06T07:23:29.901Z,99.50
2018-12-06T07:25:57.471Z,99.50
2018-12-06T07:28:25.185Z,99.50
2018-12-06T07:30:52.940Z,99.50
2018-12-06T07:33:20.511Z,99.50
2018-12-06T07:35:48.445Z,99.50
2018-12-06T07:38:16.067Z,99.60
2018-12-06T07:40:43.775Z,99.60
2018-12-06T07:43:11.402Z,99.60
2018-12-06T07:45:39.170Z,99.60
2018-12-06T07:48:06.718Z,99.60
2018-12-06T07:50:34.310Z,99.70
2018-12-06T07:53:02.094Z,99.70
2018-12-06T07:55:29.913Z,99.70
2018-12-06T07:57:57.476Z,99.70
2018-12-06T08:00:25.027Z,99.80
2018-12-06T08:02:52.686Z,99.70
2018-12-06T08:05:20.389Z,99.90
2018-12-06T08:07:47.938Z,99.80
2018-12-06T08:10:15.713Z,99.90
2018-12-06T08:12:43.298Z,99.90
2018-12-06T08:15:11.083Z,99.90
2018-12-06T08:17:38.815Z,99.90
2018-12-06T08:20:07.169Z,99.90
2018-12-06T08:22:34.968Z,99.90
2018-12-06T08:25:02.629Z,99.90
2018-12-06T08:27:30.232Z,99.90
2018-12-06T08:29:58.054Z,99.90
2018-12-06T08:32:25.629Z,99.90
2018-12-06T08:34:53.519Z,99.90
2018-12-06T08:37:21.121Z,99.90
2018-12-06T08:39:48.625Z,99.90
2018-12-06T08:42:16.217Z,99.90
2018-12-06T08:44:43.761Z,99.90
2018-12-06T08:47:11.475Z,99.90
2018-12-06T08:49:39.039Z,99.90
2018-12-06T08:52:07.358Z,99.90
2018-12-06T08:54:35.203Z,99.90
2018-12-06T08:57:02.729Z,99.90
2018-12-06T08:59:30.449Z,99.90
2018-12-06T09:01:58.082Z,99.90
2018-12-06T09:04:25.739Z,99.90
2018-12-06T09:06:53.283Z,99.90
2018-12-06T09:09:20.820Z,99.90
2018-12-06T09:11:48.407Z,99.90
2018-12-06T09:14:16.440Z,99.90
2018-12-06T09:16:44.161Z,99.90
2018-12-06T09:19:11.775Z,99.90
2018-12-06T09:21:39.502Z,99.90
2018-12-06T09:24:07.378Z,99.90
2018-12-06T09:26:34.921Z,99.90
2018-12-06T09:29:02.558Z,99.90
2018-12-06T09:31:30.224Z,99.90
2018-12-06T09:34:06.699Z,99.90
2018-12-06T09:36:35.209Z,99.90
2018-12-06T09:39:05.194Z,99.90
2018-12-06T09:41:34.569Z,99.90
2018-12-06T09:44:02.502Z,99.90
2018-12-06T09:46:33.069Z,99.90
2018-12-06T09:49:02.062Z,99.90
2018-12-06T09:51:29.801Z,99.90
2018-12-06T09:53:57.364Z,99.90
2018-12-06T09:56:25.012Z,99.90
2018-12-06T09:58:52.744Z,99.90
2018-12-06T10:01:20.281Z,99.90
2018-12-06T10:03:47.886Z,99.90
2018-12-06T10:06:15.454Z,99.90
2018-12-06T10:08:43.057Z,99.90
2018-12-06T10:11:10.573Z,99.90
2018-12-06T10:13:38.169Z,99.90
2018-12-06T10:16:05.741Z,99.90
2018-12-06T10:18:33.344Z,99.90
2018-12-06T10:21:01.057Z,99.90
2018-12-06T10:23:29.051Z,99.90
2018-12-06T10:25:56.790Z,99.90
2018-12-06T10:28:24.552Z,99.90
2018-12-06T10:30:52.362Z,99.90
2018-12-06T10:33:20.038Z,99.90
2018-12-06T10:35:47.573Z,99.90
2018-12-06T10:38:15.184Z,99.90
2018-12-06T10:40:42.828Z,99.90
2018-12-06T10:43:10.460Z,99.90
2018-12-06T10:45:38.206Z,99.90
2018-12-06T10:48:05.715Z,99.90
2018-12-06T10:50:33.217Z,99.90
2018-12-06T10:53:00.902Z,99.90
2018-12-06T10:55:28.576Z,99.90
2018-12-06T10:57:56.433Z,99.90
2018-12-06T11:00:29.910Z,99.90
2018-12-06T11:03:03.342Z,99.90
2018-12-06T11:05:31.016Z,99.90
2018-12-06T11:07:58.953Z,99.90
2018-12-06T11:10:26.523Z,99.90
2018-12-06T11:12:54.116Z,99.90
2018-12-06T11:15:21.747Z,99.90
2018-12-06T11:17:49.309Z,99.90
2018-12-06T11:20:16.934Z,99.90
2018-12-06T11:22:45.005Z,99.90
2018-12-06T11:25:12.721Z,99.90
2018-12-06T11:27:40.285Z,99.90
2018-12-06T11:30:08.213Z,99.90
2018-12-06T11:32:35.949Z,99.90
2018-12-06T11:35:03.885Z,99.90
2018-12-06T11:37:31.455Z,99.90
2018-12-06T11:39:59.004Z,99.90
2018-12-06T11:42:26.603Z,99.90
2018-12-06T11:44:54.361Z,99.90
2018-12-06T11:47:21.908Z,99.90
2018-12-06T11:49:49.631Z,99.90
2018-12-06T11:52:17.196Z,99.90
2018-12-06T11:54:44.787Z,99.90
2018-12-06T11:57:12.582Z,99.90
2018-12-06T11:59:40.116Z,99.90
2018-12-06T12:02:10.144Z,99.90
2018-12-06T12:04:37.389Z,99.90
2018-12-06T12:07:05.184Z,99.90
2018-12-06T12:09:32.794Z,99.90
2018-12-06T12:12:00.333Z,99.90
2018-12-06T12:14:30.793Z,99.90
2018-12-06T12:16:58.353Z,99.90
2018-12-06T12:19:26.272Z,99.90
2018-12-06T12:21:53.934Z,99.90
2018-12-06T12:24:21.541Z,99.90
2018-12-06T12:26:49.069Z,99.90
2018-12-06T12:29:16.730Z,99.90
2018-12-06T12:31:44.385Z,99.90
2018-12-06T12:34:12.908Z,99.90
2018-12-06T12:36:41.038Z,99.90
2018-12-06T12:39:10.712Z,99.90
2018-12-06T12:41:39.053Z,99.90
2018-12-06T12:44:06.679Z,99.90
2018-12-06T12:46:34.425Z,99.90
2018-12-06T12:49:02.469Z,99.90
2018-12-06T12:51:29.986Z,99.90
2018-12-06T12:53:57.730Z,99.90
2018-12-06T12:56:25.297Z,99.90
2018-12-06T12:58:52.955Z,99.90
2018-12-06T13:01:20.509Z,99.90
2018-12-06T13:03:48.278Z,99.90
2018-12-06T13:06:15.831Z,99.90
2018-12-06T13:08:43.454Z,99.90
2018-12-06T13:11:11.303Z,99.90
2018-12-06T13:13:39.315Z,99.90
2018-12-06T13:16:07.079Z,99.90
2018-12-06T13:18:34.714Z,99.90
2018-12-06T13:21:02.589Z,99.90
2018-12-06T13:23:30.219Z,99.90
2018-12-06T13:25:57.810Z,99.90
2018-12-06T13:28:25.501Z,99.90
2018-12-06T13:30:53.187Z,99.90
2018-12-06T13:33:20.776Z,99.90
2018-12-06T13:35:48.366Z,99.90
2018-12-06T13:38:16.167Z,99.90
2018-12-06T13:40:43.719Z,99.90
2018-12-06T13:43:11.469Z,99.90
2018-12-06T13:45:39.098Z,99.90
2018-12-06T13:48:07.241Z,99.90
2018-12-06T13:50:35.862Z,99.90
2018-12-06T13:53:03.508Z,99.90
2018-12-06T13:55:31.181Z,99.90
2018-12-06T13:57:58.726Z,99.90
2018-12-06T14:00:26.622Z,99.90
2018-12-06T14:02:54.282Z,99.90
2018-12-06T14:05:21.850Z,99.90
2018-12-06T14:07:49.474Z,99.90
2018-12-06T14:10:17.146Z,99.90
2018-12-06T14:12:45.059Z,99.90
2018-12-06T14:15:12.874Z,99.90
2018-12-06T14:17:45.858Z,99.90
2018-12-06T14:20:13.401Z,99.90
2018-12-06T14:22:41.267Z,99.90
2018-12-06T14:25:09.185Z,99.90
2018-12-06T14:27:36.904Z,99.90
2018-12-06T14:30:05.366Z,99.90
2018-12-06T14:32:32.980Z,99.90
2018-12-06T14:35:00.562Z,99.90
2018-12-06T14:37:28.555Z,99.90
2018-12-06T14:39:56.231Z,99.90
2018-12-06T14:42:23.834Z,99.90
2018-12-06T14:44:51.455Z,99.90
2018-12-06T14:47:19.097Z,99.90
2018-12-06T14:49:46.875Z,99.90
2018-12-06T14:52:14.485Z,99.90
2018-12-06T14:54:42.253Z,99.90
2018-12-06T14:57:10.427Z,99.90
2018-12-06T14:59:37.994Z,99.90
2018-12-06T15:02:05.944Z,99.90
2018-12-06T15:04:34.025Z,99.90
2018-12-06T15:07:01.646Z,99.90
2018-12-06T15:09:29.601Z,99.90
2018-12-06T15:11:57.701Z,99.90
2018-12-06T15:14:25.709Z,99.90
2018-12-06T15:16:53.578Z,99.90
2018-12-06T15:19:21.444Z,99.90
2018-12-06T15:21:49.074Z,99.90
2018-12-06T15:24:17.849Z,99.90
2018-12-06T15:26:45.458Z,99.90
2018-12-06T15:29:13.076Z,99.90
2018-12-06T15:31:41.250Z,99.90
2018-12-06T15:34:08.899Z,99.90
2018-12-06T15:36:37.315Z,99.90
2018-12-06T15:39:06.976Z,99.90
2018-12-06T15:41:36.709Z,99.90
2018-12-06T15:44:04.473Z,99.90
2018-12-06T15:46:32.249Z,99.90
2018-12-06T15:48:59.766Z,99.90
2018-12-06T15:51:28.281Z,99.90
2018-12-06T15:53:57.034Z,99.90
2018-12-06T15:56:24.705Z,99.90
2018-12-06T15:58:52.675Z,99.90
2018-12-06T16:01:20.402Z,99.90
2018-12-06T16:03:48.014Z,99.90
2018-12-06T16:06:15.968Z,99.90
2018-12-06T16:08:43.666Z,99.90
2018-12-06T16:11:12.667Z,99.90
2018-12-06T16:13:40.896Z,99.90
2018-12-06T16:16:08.536Z,99.90
2018-12-06T16:18:36.062Z,99.90
2018-12-06T16:21:04.019Z,99.90
2018-12-06T16:23:31.590Z,99.90
2018-12-06T16:25:59.148Z,99.90
2018-12-06T16:28:26.685Z,99.90
2018-12-06T16:30:54.404Z,99.90
2018-12-06T16:33:21.960Z,99.90
2018-12-06T16:35:49.498Z,99.90
2018-12-06T16:38:17.066Z,99.90
2018-12-06T16:40:44.667Z,99.90
2018-12-06T16:43:12.277Z,99.90
2018-12-06T16:45:39.833Z,99.90
2018-12-06T16:48:07.377Z,99.90
2018-12-06T16:50:35.075Z,99.90
2018-12-06T16:53:02.693Z,99.90
2018-12-06T16:55:30.260Z,99.90
2018-12-06T16:57:57.924Z,99.90
2018-12-06T17:00:25.576Z,99.90
2018-12-06T17:02:53.099Z,99.90
2018-12-06T17:05:20.897Z,99.90
2018-12-06T17:07:48.582Z,99.90
2018-12-06T17:10:16.157Z,99.90
2018-12-06T17:12:43.971Z,99.90
2018-12-06T17:15:12.170Z,99.90
2018-12-06T17:17:39.770Z,99.90
2018-12-06T17:20:07.885Z,99.90
2018-12-06T17:22:35.559Z,99.90
2018-12-06T17:25:03.623Z,99.90
2018-12-06T17:27:31.270Z,99.90
2018-12-06T17:29:59.382Z,99.90
2018-12-06T17:32:27.132Z,99.90
2018-12-06T17:34:54.647Z,99.90
2018-12-06T17:37:22.138Z,99.90
2018-12-06T17:39:49.697Z,99.90
2018-12-06T17:42:17.313Z,99.90
2018-12-06T17:44:44.893Z,99.90
2018-12-06T17:47:12.634Z,99.90
2018-12-06T17:49:40.274Z,99.90
2018-12-06T17:52:07.933Z,99.90
2018-12-06T17:54:35.592Z,99.90
2018-12-06T17:57:03.244Z,99.90
2018-12-06T17:59:30.828Z,99.90
2018-12-06T18:01:58.402Z,99.90
2018-12-06T18:04:26.136Z,99.90
2018-12-06T18:06:53.883Z,99.90
2018-12-06T18:09:21.415Z,99.90
2018-12-06T18:11:48.949Z,99.90
2018-12-06T18:14:16.570Z,99.90
2018-12-06T18:16:44.164Z,99.90
2018-12-06T18:19:11.731Z,99.90
2018-12-06T18:21:39.386Z,99.90
2018-12-06T18:24:18.345Z,99.90
2018-12-06T18:26:43.590Z,99.90
2018-12-06T18:29:12.695Z,99.90
2018-12-06T18:31:40.622Z,99.90
2018-12-06T18:34:08.619Z,99.90
2018-12-06T18:36:44.115Z,99.90
2018-12-06T18:39:11.772Z,99.90
2018-12-06T18:41:39.310Z,99.90
2018-12-06T18:44:06.833Z,99.90
2018-12-06T18:46:34.513Z,99.90
2018-12-06T18:49:02.385Z,99.90
2018-12-06T18:51:30.114Z,99.90
2018-12-06T18:53:57.657Z,99.90
2018-12-06T18:56:25.302Z,99.90
2018-12-06T18:58:52.886Z,99.90
2018-12-06T19:01:20.544Z,99.90
2018-12-06T19:03:49.228Z,99.90
2018-12-06T19:06:18.639Z,99.90
2018-12-06T19:08:47.803Z,99.90
2018-12-06T19:11:17.782Z,99.90
2018-12-06T19:13:46.312Z,99.90
2018-12-06T19:16:14.778Z,99.90
2018-12-06T19:18:42.566Z,99.90
2018-12-06T19:21:11.603Z,99.90
2018-12-06T19:23:42.146Z,99.90
2018-12-06T19:26:10.883Z,99.90
2018-12-06T19:28:39.634Z,99.90
2018-12-06T19:31:07.779Z,99.90
2018-12-06T19:33:36.206Z,99.90
2018-12-06T19:36:04.430Z,99.90
2018-12-06T19:38:36.294Z,99.90
2018-12-06T19:43:53.942Z,99.90
2018-12-06T19:46:23.737Z,99.90
2018-12-06T19:51:40.690Z,99.90
2018-12-06T19:54:09.352Z,99.90
2018-12-06T19:56:39.855Z,99.90
2018-12-06T19:59:07.665Z,99.90
2018-12-06T20:01:36.254Z,99.90
2018-12-06T20:04:04.045Z,99.90
2018-12-06T20:06:31.957Z,99.90
2018-12-06T20:08:59.952Z,99.90
2018-12-06T20:11:28.450Z,99.90
2018-12-06T20:13:56.179Z,99.90
2018-12-06T20:16:26.263Z,99.90
2018-12-06T20:18:53.954Z,99.90
2018-12-06T20:21:22.340Z,99.90
2018-12-06T20:23:51.951Z,99.90
2018-12-06T20:26:21.081Z,99.90
2018-12-06T20:28:52.670Z,99.90
2018-12-06T20:31:20.950Z,99.90
2018-12-06T20:33:51.461Z,99.90
2018-12-06T20:36:21.090Z,99.90
2018-12-06T20:38:48.724Z,99.90
2018-12-06T20:41:16.373Z,99.90
2018-12-06T20:43:43.915Z,99.90
2018-12-06T20:46:12.175Z,99.90
2018-12-06T20:48:39.795Z,99.90
2018-12-06T20:51:07.371Z,99.90
2018-12-06T20:53:35.148Z,99.90
2018-12-06T20:56:03.197Z,99.90
2018-12-06T20:58:31.290Z,99.90
2018-12-06T21:00:59.174Z,99.90
2018-12-06T21:03:28.171Z,99.90
2018-12-06T21:06:02.524Z,99.90
2018-12-06T21:08:30.343Z,99.90
2018-12-06T21:10:57.983Z,99.90
2018-12-06T21:13:25.631Z,99.90
2018-12-06T21:15:55.366Z,99.90
2018-12-06T21:18:23.094Z,99.90
2018-12-06T21:20:51.141Z,99.90
2018-12-06T21:23:18.998Z,99.90
2018-12-06T21:25:46.660Z,99.90
2018-12-06T21:28:14.177Z,99.90
2018-12-06T21:30:41.842Z,99.90
2018-12-06T21:33:09.410Z,99.90
2018-12-06T21:35:37.244Z,99.90
2018-12-06T21:38:06.949Z,99.90
2018-12-06T21:40:34.581Z,99.90
2018-12-06T21:43:02.226Z,99.90
2018-12-06T21:45:29.942Z,99.90
2018-12-06T21:47:57.516Z,99.90
2018-12-06T21:50:25.175Z,99.90
2018-12-06T21:52:52.990Z,99.90
2018-12-06T21:55:20.705Z,99.90
2018-12-06T21:57:48.606Z,99.90
2018-12-06T22:00:16.299Z,99.90
2018-12-06T22:02:44.060Z,99.90
2018-12-06T22:05:11.703Z,99.90
2018-12-06T22:07:39.439Z,99.90
2018-12-06T22:10:08.106Z,99.90
2018-12-06T22:12:35.856Z,99.90
2018-12-06T22:15:04.053Z,99.90
2018-12-06T22:17:31.953Z,99.90
2018-12-06T22:19:59.595Z,99.90
2018-12-06T22:22:27.366Z,99.90
2018-12-06T22:24:55.322Z,99.90
2018-12-06T22:27:22.948Z,99.90
2018-12-06T22:29:50.644Z,99.90
2018-12-06T22:32:18.248Z,99.90
2018-12-06T22:34:46.062Z,99.90
2018-12-06T22:37:13.763Z,99.90
2018-12-06T22:39:41.619Z,99.90
2018-12-06T22:42:09.232Z,99.90
2018-12-06T22:44:36.980Z,99.90
2018-12-06T22:47:04.706Z,99.90
2018-12-06T22:49:32.307Z,99.90
2018-12-06T22:51:59.950Z,99.90
2018-12-06T22:54:28.000Z,99.90
2018-12-06T22:56:55.659Z,99.90
2018-12-06T22:59:23.417Z,99.90
2018-12-06T23:01:51.229Z,99.90
2018-12-06T23:04:19.926Z,99.90
2018-12-06T23:06:47.685Z,99.90
2018-12-06T23:09:15.444Z,99.90
2018-12-06T23:11:43.121Z,99.90
2018-12-06T23:14:11.057Z,99.90
2018-12-06T23:16:38.901Z,99.90
2018-12-06T23:19:06.839Z,99.90
2018-12-06T23:21:34.853Z,99.90
2018-12-06T23:24:02.511Z,99.90
2018-12-06T23:26:30.170Z,99.90
2018-12-06T23:28:57.784Z,99.90
2018-12-06T23:31:25.347Z,99.90
2018-12-06T23:33:53.362Z,99.90
2018-12-06T23:36:21.789Z,99.90
2018-12-06T23:38:52.447Z,99.90
2018-12-06T23:41:20.494Z,99.90
2018-12-06T23:43:48.139Z,99.90
2018-12-06T23:46:15.707Z,99.90
2018-12-06T23:48:43.946Z,99.90
2018-12-06T23:51:23.137Z,99.90
2018-12-06T23:53:50.725Z,99.90
2018-12-06T23:56:18.379Z,99.90
2018-12-06T23:58:46.074Z,99.90
